EVRA/RIX METAR and TAF weather

Enter ICAO airport designator
Station Type Date Time Source
EVRA METAR 2019/10/20 19:20 UTC NOAA

EVRA 201920Z 21006KT 170V240 CAVOK 15/13 Q1013 R18/190095 NOSIG


Station Type Date Time Source
EVRA Decoded METAR 2019/10/20 19:20 UTC NOAA

Riga International Airport, Latvia (EVRA) 56-55N 023-58E
Oct 20, 2019 - 03:20 PM EDT / 2019.10.20 1920 UTC
Wind: from the SSW (210 degrees) at 7 MPH (6 KT) (direction variable):0
Visibility: greater than 7 mile(s):0
Temperature: 59 F (15 C)
Dew Point: 55 F (13 C)
Relative Humidity: 87%
Pressure (altimeter): 29.91 in. Hg (1013 hPa)
ob: EVRA 201920Z 21006KT 170V240 CAVOK 15/13 Q1013 R18/190095 NOSIG
cycle: 19

Station Type Date Time Source
EVRA TAF 2019/10/20 18:12 UTC NOAA

TAF TAF EVRA 201709Z 2018/2118 20006KT 9999 SCT030
TEMPO 2023/2107 4000 -RA BR BKN005
TEMPO 2107/2112 BKN010

Example: see airport list